createdAt,value
2019-04-01T00:00:12.006Z,19.15
2019-04-01T00:01:11.966Z,19.15
2019-04-01T00:02:12.015Z,19.15
2019-04-01T00:03:12.072Z,19.13
2019-04-01T00:04:11.951Z,19.11
2019-04-01T00:05:12.038Z,19.11
2019-04-01T00:06:12.001Z,19.11
2019-04-01T00:07:12.020Z,19.12
2019-04-01T00:08:11.792Z,19.11
2019-04-01T00:09:11.966Z,19.11
2019-04-01T00:10:11.953Z,19.11
2019-04-01T00:11:12.047Z,19.12
2019-04-01T00:12:11.853Z,19.12
2019-04-01T00:13:12.106Z,19.12
2019-04-01T00:14:11.822Z,19.11
2019-04-01T00:15:11.953Z,19.08
2019-04-01T00:16:11.938Z,19.09
2019-04-01T00:17:11.902Z,19.09
2019-04-01T00:18:11.876Z,19.08
2019-04-01T00:19:12.008Z,19.08
2019-04-01T00:20:12.269Z,19.08
2019-04-01T00:21:12.008Z,19.08
2019-04-01T00:22:11.940Z,19.08
2019-04-01T00:23:12.969Z,19.06
2019-04-01T00:24:11.981Z,19.05
2019-04-01T00:25:12.146Z,19.08
2019-04-01T00:26:11.853Z,19.08
2019-04-01T00:27:11.884Z,19.06
2019-04-01T00:28:11.916Z,19.06
2019-04-01T00:29:11.894Z,19.06
2019-04-01T00:30:11.942Z,19.03
2019-04-01T00:31:11.852Z,19.05
2019-04-01T00:32:11.881Z,19.05
2019-04-01T00:33:11.944Z,19.05
2019-04-01T00:34:11.897Z,19.05
2019-04-01T00:35:11.886Z,19.06
2019-04-01T00:36:12.004Z,19.05
2019-04-01T00:37:11.914Z,19.05
2019-04-01T00:38:12.038Z,19.03
2019-04-01T00:39:11.986Z,19.03
2019-04-01T00:40:11.959Z,19.05
2019-04-01T00:41:12.022Z,19.01
2019-04-01T00:42:12.065Z,19.03
2019-04-01T00:43:12.005Z,19.05
2019-04-01T00:44:12.016Z,19.02
2019-04-01T00:45:11.873Z,19.03
2019-04-01T00:46:11.761Z,19.02
2019-04-01T00:47:11.800Z,18.99
2019-04-01T00:48:11.811Z,19.03
2019-04-01T00:49:11.828Z,19.01
2019-04-01T00:50:11.983Z,19.01
2019-04-01T00:51:11.903Z,19.03
2019-04-01T00:52:11.856Z,19.02
2019-04-01T00:53:11.991Z,19.01
2019-04-01T00:54:12.259Z,19.01
2019-04-01T00:55:12.132Z,18.99
2019-04-01T00:56:11.884Z,19.01
2019-04-01T00:57:11.958Z,19.02
2019-04-01T00:58:11.901Z,18.99
2019-04-01T00:59:11.933Z,18.99
2019-04-01T01:00:12.129Z,18.99
2019-04-01T01:01:12.043Z,19.01
2019-04-01T01:02:11.991Z,18.98
2019-04-01T01:03:11.768Z,18.99
2019-04-01T01:04:11.847Z,19.01
2019-04-01T01:05:11.796Z,18.98
2019-04-01T01:06:11.959Z,18.98
2019-04-01T01:07:11.847Z,18.98
2019-04-01T01:08:11.954Z,18.99
2019-04-01T01:09:11.892Z,18.98
2019-04-01T01:10:11.974Z,18.98
2019-04-01T01:11:11.894Z,18.97
2019-04-01T01:12:12.030Z,18.99
2019-04-01T01:13:11.950Z,18.95
2019-04-01T01:14:11.943Z,18.98
2019-04-01T01:15:12.320Z,18.99
2019-04-01T01:16:11.959Z,18.97
2019-04-01T01:17:11.977Z,18.95
2019-04-01T01:18:12.097Z,18.97
2019-04-01T01:19:11.980Z,18.99
2019-04-01T01:20:12.289Z,18.98
2019-04-01T01:21:11.904Z,18.99
2019-04-01T01:22:11.868Z,18.94
2019-04-01T01:23:11.828Z,18.95
2019-04-01T01:24:11.765Z,18.97
2019-04-01T01:25:11.850Z,18.95
2019-04-01T01:26:11.845Z,18.97
2019-04-01T01:27:11.987Z,18.95
2019-04-01T01:28:11.811Z,18.97
2019-04-01T01:29:12.015Z,18.95
2019-04-01T01:30:12.990Z,18.97
2019-04-01T01:31:12.016Z,18.97
2019-04-01T01:32:11.893Z,18.95
2019-04-01T01:33:12.061Z,18.95
2019-04-01T01:34:11.922Z,18.95
2019-04-01T01:35:11.940Z,18.94
2019-04-01T01:36:12.421Z,18.95
2019-04-01T01:37:12.057Z,18.92
2019-04-01T01:38:11.969Z,18.94
2019-04-01T01:39:11.744Z,18.94
2019-04-01T01:40:11.916Z,18.92
2019-04-01T01:41:11.797Z,18.94
2019-04-01T01:42:11.873Z,18.94
2019-04-01T01:43:11.879Z,18.95
2019-04-01T01:44:11.732Z,18.95
2019-04-01T01:45:11.931Z,18.91
2019-04-01T01:46:11.867Z,18.94
2019-04-01T01:47:11.879Z,18.92
2019-04-01T01:48:11.915Z,18.92
2019-04-01T01:49:11.885Z,18.92
2019-04-01T01:50:11.918Z,18.91
2019-04-01T01:51:11.956Z,18.95
2019-04-01T01:52:12.059Z,18.9
2019-04-01T01:53:11.980Z,18.94
2019-04-01T01:54:12.067Z,18.94
2019-04-01T01:55:11.993Z,18.91
2019-04-01T01:56:12.003Z,18.92
2019-04-01T01:57:11.913Z,18.9
2019-04-01T01:58:11.910Z,18.91
2019-04-01T01:59:11.915Z,18.91
2019-04-01T02:00:11.737Z,18.91
2019-04-01T02:01:11.795Z,18.91
2019-04-01T02:02:11.786Z,18.92
2019-04-01T02:03:12.006Z,18.91
2019-04-01T02:04:11.828Z,18.9
2019-04-01T02:05:11.966Z,18.9
2019-04-01T02:06:12.965Z,18.9
2019-04-01T02:07:11.869Z,18.91
2019-04-01T02:08:11.876Z,18.9
2019-04-01T02:09:11.943Z,18.92
2019-04-01T02:10:11.906Z,18.92
2019-04-01T02:11:11.878Z,18.9
2019-04-01T02:12:11.989Z,18.91
2019-04-01T02:13:12.146Z,18.9
2019-04-01T02:14:11.981Z,18.91
2019-04-01T02:15:11.776Z,18.91
2019-04-01T02:16:11.767Z,18.91
2019-04-01T02:17:11.900Z,18.91
2019-04-01T02:18:11.789Z,18.9
2019-04-01T02:19:11.834Z,18.9
2019-04-01T02:20:11.813Z,18.91
2019-04-01T02:21:11.840Z,18.9
2019-04-01T02:22:12.034Z,18.9
2019-04-01T02:23:11.865Z,18.9
2019-04-01T02:24:11.895Z,18.9
2019-04-01T02:25:11.930Z,18.88
2019-04-01T02:26:11.903Z,18.9
2019-04-01T02:27:12.064Z,18.9
2019-04-01T02:28:12.037Z,18.88
2019-04-01T02:29:12.084Z,18.9
2019-04-01T02:30:12.003Z,18.88
2019-04-01T02:31:12.019Z,18.9
2019-04-01T02:32:11.774Z,18.91
2019-04-01T02:33:11.767Z,18.88
2019-04-01T02:34:11.797Z,18.9
2019-04-01T02:35:11.763Z,18.88
2019-04-01T02:36:11.834Z,18.9
2019-04-01T02:37:11.945Z,18.9
2019-04-01T02:38:11.927Z,18.9
2019-04-01T02:39:11.874Z,18.9
2019-04-01T02:40:11.867Z,18.87
2019-04-01T02:41:12.400Z,18.88
2019-04-01T02:42:12.269Z,18.87
2019-04-01T02:43:12.083Z,18.88
2019-04-01T02:44:12.068Z,18.88
2019-04-01T02:45:12.010Z,18.87
2019-04-01T02:46:11.968Z,18.87
2019-04-01T02:47:11.941Z,18.88
2019-04-01T02:48:11.961Z,18.87
2019-04-01T02:49:12.075Z,18.85
2019-04-01T02:50:11.848Z,18.87
2019-04-01T02:51:11.837Z,18.87
2019-04-01T02:52:11.819Z,18.85
2019-04-01T02:53:11.958Z,18.87
2019-04-01T02:54:11.867Z,18.87
2019-04-01T02:55:11.941Z,18.87
2019-04-01T02:56:11.887Z,18.87
2019-04-01T02:57:11.911Z,18.87
2019-04-01T02:58:11.958Z,18.85
2019-04-01T02:59:11.857Z,18.87
2019-04-01T03:00:11.909Z,18.85
2019-04-01T03:01:12.067Z,18.87
2019-04-01T03:02:11.935Z,18.84
2019-04-01T03:03:11.967Z,18.85
2019-04-01T03:04:12.154Z,18.85
2019-04-01T03:05:11.978Z,18.85
2019-04-01T03:06:12.021Z,18.88
2019-04-01T03:07:11.998Z,18.85
2019-04-01T03:08:11.746Z,18.84
2019-04-01T03:09:11.777Z,18.85
2019-04-01T03:10:11.843Z,18.85
2019-04-01T03:11:11.813Z,18.84
2019-04-01T03:12:11.801Z,18.85
2019-04-01T03:13:12.029Z,18.83
2019-04-01T03:14:11.786Z,18.83
2019-04-01T03:15:11.821Z,18.84
2019-04-01T03:16:11.862Z,18.83
2019-04-01T03:17:12.114Z,18.83
2019-04-01T03:18:11.883Z,18.84
2019-04-01T03:19:11.903Z,18.84
2019-04-01T03:20:11.888Z,18.84
2019-04-01T03:21:11.927Z,18.84
2019-04-01T03:22:11.918Z,18.83
2019-04-01T03:23:11.936Z,18.83
2019-04-01T03:24:12.236Z,18.83
2019-04-01T03:25:11.818Z,18.84
2019-04-01T03:26:11.906Z,18.83
2019-04-01T03:27:11.782Z,18.83
2019-04-01T03:28:11.781Z,18.83
2019-04-01T03:29:11.806Z,18.81
2019-04-01T03:30:12.349Z,18.81
2019-04-01T03:31:11.922Z,18.81
2019-04-01T03:32:11.895Z,18.83
2019-04-01T03:33:11.964Z,18.81
2019-04-01T03:34:12.091Z,18.81
2019-04-01T03:35:12.116Z,18.83
2019-04-01T03:36:11.925Z,18.81
2019-04-01T03:37:12.073Z,18.81
2019-04-01T03:38:12.072Z,18.81
2019-04-01T03:39:11.923Z,18.84
2019-04-01T03:40:11.977Z,18.81
2019-04-01T03:41:12.011Z,18.81
2019-04-01T03:42:11.871Z,18.83
2019-04-01T03:43:11.736Z,18.84
2019-04-01T03:44:11.728Z,18.84
2019-04-01T03:45:11.822Z,18.83
2019-04-01T03:46:12.289Z,18.85
2019-04-01T03:47:12.187Z,18.85
2019-04-01T03:48:11.931Z,18.85
2019-04-01T03:49:12.044Z,18.88
2019-04-01T03:50:11.826Z,18.87
2019-04-01T03:51:11.831Z,18.88
2019-04-01T03:52:11.867Z,18.87
2019-04-01T03:53:12.024Z,18.9
2019-04-01T03:54:12.047Z,18.91
2019-04-01T03:55:11.982Z,18.92
2019-04-01T03:56:11.934Z,18.94
2019-04-01T03:57:11.921Z,18.95
2019-04-01T03:58:11.938Z,18.97
2019-04-01T03:59:11.792Z,18.98
2019-04-01T04:00:11.822Z,18.98
2019-04-01T04:01:11.975Z,19.02
2019-04-01T04:02:11.887Z,19.02
2019-04-01T04:03:11.831Z,19.05
2019-04-01T04:04:11.904Z,19.08
2019-04-01T04:05:11.856Z,19.11
2019-04-01T04:06:11.861Z,19.09
2019-04-01T04:07:12.168Z,19.12
2019-04-01T04:08:12.241Z,19.13
2019-04-01T04:09:11.984Z,19.15
2019-04-01T04:10:11.868Z,19.18
2019-04-01T04:11:12.125Z,19.19
2019-04-01T04:12:12.118Z,19.2
2019-04-01T04:13:12.168Z,19.2
2019-04-01T04:14:12.219Z,19.22
2019-04-01T04:15:11.808Z,19.26
2019-04-01T04:16:11.727Z,19.26
2019-04-01T04:17:11.740Z,19.27
2019-04-01T04:18:11.756Z,19.29
2019-04-01T04:19:11.733Z,19.32
2019-04-01T04:20:11.765Z,19.33
2019-04-01T04:21:11.853Z,19.36
2019-04-01T04:22:11.996Z,19.39
2019-04-01T04:23:11.814Z,19.39
2019-04-01T04:24:11.702Z,19.37
2019-04-01T04:25:11.789Z,19.43
2019-04-01T04:26:11.980Z,19.42
2019-04-01T04:27:11.939Z,19.43
2019-04-01T04:28:11.886Z,19.46
2019-04-01T04:29:11.897Z,19.46
2019-04-01T04:30:11.992Z,19.49
2019-04-01T04:31:11.884Z,19.49
2019-04-01T04:32:11.970Z,19.52
2019-04-01T04:33:11.958Z,19.5
2019-04-01T04:34:11.749Z,19.53
2019-04-01T04:35:11.755Z,19.53
2019-04-01T04:36:11.734Z,19.56
2019-04-01T04:37:11.767Z,19.57
2019-04-01T04:38:11.782Z,19.6
2019-04-01T04:39:11.767Z,19.61
2019-04-01T04:40:11.800Z,19.6
2019-04-01T04:41:11.836Z,19.63
2019-04-01T04:42:11.790Z,19.61
2019-04-01T04:43:11.880Z,19.64
2019-04-01T04:44:11.999Z,19.65
2019-04-01T04:45:11.882Z,19.65
2019-04-01T04:46:12.018Z,19.65
2019-04-01T04:47:11.976Z,19.65
2019-04-01T04:48:12.015Z,19.7
2019-04-01T04:49:11.914Z,19.68
2019-04-01T04:50:11.968Z,19.7
2019-04-01T04:51:12.022Z,19.68
2019-04-01T04:52:11.842Z,19.71
2019-04-01T04:53:11.843Z,19.71
2019-04-01T04:54:11.770Z,19.71
2019-04-01T04:55:11.823Z,19.73
2019-04-01T04:56:11.733Z,19.71
2019-04-01T04:57:11.739Z,19.74
2019-04-01T04:58:11.856Z,19.74
2019-04-01T04:59:11.753Z,19.74
2019-04-01T05:00:11.805Z,19.71
2019-04-01T05:01:11.883Z,19.75
2019-04-01T05:02:11.717Z,19.73
2019-04-01T05:03:11.892Z,19.73
2019-04-01T05:04:11.832Z,19.75
2019-04-01T05:05:11.899Z,19.75
2019-04-01T05:06:11.851Z,19.73
2019-04-01T05:07:11.962Z,19.74
2019-04-01T05:08:11.897Z,19.77
2019-04-01T05:09:12.038Z,19.78
2019-04-01T05:10:11.698Z,19.75
2019-04-01T05:11:11.724Z,19.75
2019-04-01T05:12:11.724Z,19.75
2019-04-01T05:13:11.739Z,19.77
2019-04-01T05:14:11.886Z,19.75
2019-04-01T05:15:11.779Z,19.75
2019-04-01T05:16:11.859Z,19.77
2019-04-01T05:17:11.913Z,19.75
2019-04-01T05:18:11.774Z,19.75
2019-04-01T05:19:11.852Z,19.75
2019-04-01T05:20:11.889Z,19.77
2019-04-01T05:21:11.849Z,19.77
2019-04-01T05:22:12.036Z,19.75
2019-04-01T05:23:11.891Z,19.75
2019-04-01T05:24:11.900Z,19.77
2019-04-01T05:25:11.996Z,19.74
2019-04-01T05:26:11.921Z,19.77
2019-04-01T05:27:11.940Z,19.75
2019-04-01T05:28:11.984Z,19.75
2019-04-01T05:29:11.789Z,19.75
2019-04-01T05:30:11.730Z,19.75
2019-04-01T05:31:15.176Z,19.74
2019-04-01T05:32:11.672Z,19.74
2019-04-01T05:33:11.733Z,19.77
2019-04-01T05:34:11.835Z,19.75
2019-04-01T05:35:11.756Z,19.75
2019-04-01T05:36:12.008Z,19.75
2019-04-01T05:37:11.843Z,19.75
2019-04-01T05:38:11.764Z,19.74
2019-04-01T05:39:11.825Z,19.75
2019-04-01T05:40:11.770Z,19.73
2019-04-01T05:41:11.799Z,19.73
2019-04-01T05:42:12.018Z,19.74
2019-04-01T05:43:11.897Z,19.75
2019-04-01T05:44:11.844Z,19.75
2019-04-01T05:45:11.899Z,19.71
2019-04-01T05:46:11.895Z,19.73
2019-04-01T05:47:11.991Z,19.74
2019-04-01T05:48:12.002Z,19.73
2019-04-01T05:49:11.789Z,19.73
2019-04-01T05:50:11.823Z,19.74
2019-04-01T05:51:11.735Z,19.73
2019-04-01T05:52:12.058Z,19.74
2019-04-01T05:53:11.715Z,19.73
2019-04-01T05:54:11.799Z,19.73
2019-04-01T05:55:11.912Z,19.74
2019-04-01T05:56:11.761Z,19.73
2019-04-01T05:57:12.280Z,19.73
2019-04-01T05:58:11.745Z,19.71
2019-04-01T05:59:11.785Z,19.73
2019-04-01T06:00:11.825Z,19.73
2019-04-01T06:01:11.816Z,19.71
2019-04-01T06:02:11.900Z,19.71
2019-04-01T06:03:11.856Z,19.71
2019-04-01T06:04:11.934Z,19.71
2019-04-01T06:05:12.213Z,19.71
2019-04-01T06:06:11.940Z,19.7
2019-04-01T06:07:11.962Z,19.71
2019-04-01T06:08:11.745Z,19.71
2019-04-01T06:09:11.640Z,19.71
2019-04-01T06:10:11.667Z,19.71
2019-04-01T06:11:11.659Z,19.71
2019-04-01T06:12:11.687Z,19.71
2019-04-01T06:13:11.735Z,19.71
2019-04-01T06:14:11.703Z,19.71
2019-04-01T06:15:11.774Z,19.68
2019-04-01T06:16:11.821Z,19.71
2019-04-01T06:17:11.797Z,19.73
2019-04-01T06:18:11.851Z,19.71
2019-04-01T06:19:11.760Z,19.71
2019-04-01T06:20:11.766Z,19.7
2019-04-01T06:21:11.837Z,19.71
2019-04-01T06:22:11.828Z,19.71
2019-04-01T06:23:11.887Z,19.73
2019-04-01T06:24:11.981Z,19.71
2019-04-01T06:25:12.135Z,19.71
2019-04-01T06:26:11.861Z,19.73
2019-04-01T06:27:14.062Z,19.71
2019-04-01T06:28:11.682Z,19.71
2019-04-01T06:29:11.690Z,19.73
2019-04-01T06:30:11.797Z,19.74
2019-04-01T06:31:11.808Z,19.73
2019-04-01T06:32:11.838Z,19.71
2019-04-01T06:33:11.786Z,19.71
2019-04-01T06:34:11.727Z,19.73
2019-04-01T06:35:11.756Z,19.73
2019-04-01T06:36:11.761Z,19.73
2019-04-01T06:37:11.790Z,19.71
2019-04-01T06:38:11.908Z,19.73
2019-04-01T06:39:12.117Z,19.74
2019-04-01T06:40:11.865Z,19.73
2019-04-01T06:41:12.265Z,19.74
2019-04-01T06:42:12.067Z,19.73
2019-04-01T06:43:11.975Z,19.71
2019-04-01T06:44:11.932Z,19.71
2019-04-01T06:45:11.916Z,19.7
2019-04-01T06:46:12.114Z,19.74
2019-04-01T06:47:11.804Z,19.73
2019-04-01T06:48:11.732Z,19.74
2019-04-01T06:49:11.674Z,19.74
2019-04-01T06:50:11.700Z,19.75
2019-04-01T06:51:11.719Z,19.74
2019-04-01T06:52:11.673Z,19.77
2019-04-01T06:53:11.696Z,19.75
2019-04-01T06:54:11.707Z,19.74
2019-04-01T06:55:12.067Z,19.74
2019-04-01T06:56:11.908Z,19.73
2019-04-01T06:57:11.934Z,19.74
2019-04-01T06:58:12.436Z,19.74
2019-04-01T06:59:11.919Z,19.77
2019-04-01T07:00:11.931Z,19.77
2019-04-01T07:01:11.792Z,19.77
2019-04-01T07:02:11.903Z,19.75
2019-04-01T07:03:12.083Z,19.77
2019-04-01T07:04:12.028Z,19.8
2019-04-01T07:05:13.275Z,19.77
2019-04-01T07:06:11.637Z,19.78
2019-04-01T07:07:19.821Z,19.8
2019-04-01T07:08:11.782Z,19.78
2019-04-01T07:09:11.720Z,19.77
2019-04-01T07:10:11.893Z,19.78
2019-04-01T07:11:11.749Z,19.77
2019-04-01T07:12:11.764Z,19.78
2019-04-01T07:13:11.778Z,19.77
2019-04-01T07:14:11.816Z,19.77
2019-04-01T07:15:11.758Z,19.8
2019-04-01T07:16:16.650Z,19.77
2019-04-01T07:17:11.819Z,19.78
2019-04-01T07:18:11.877Z,19.78
2019-04-01T07:19:11.952Z,19.8
2019-04-01T07:20:11.883Z,19.78
2019-04-01T07:21:11.884Z,19.78
2019-04-01T07:22:12.203Z,19.78
2019-04-01T07:23:11.888Z,19.82
2019-04-01T07:24:12.023Z,19.8
2019-04-01T07:25:12.128Z,19.8
2019-04-01T07:26:11.728Z,19.8
2019-04-01T07:27:11.660Z,19.78
2019-04-01T07:28:11.747Z,19.77
2019-04-01T07:29:11.708Z,19.78
2019-04-01T07:30:11.721Z,19.8
2019-04-01T07:31:11.825Z,19.81
2019-04-01T07:32:15.006Z,19.8
2019-04-01T07:33:11.755Z,19.8
2019-04-01T07:34:11.825Z,19.8
2019-04-01T07:35:11.769Z,19.8
2019-04-01T07:36:11.907Z,19.8
2019-04-01T07:37:12.194Z,19.8
2019-04-01T07:38:11.863Z,19.81
2019-04-01T07:39:11.965Z,19.8
2019-04-01T07:40:14.395Z,19.8
2019-04-01T07:41:11.864Z,19.81
2019-04-01T07:42:11.874Z,19.78
2019-04-01T07:43:15.577Z,19.8
2019-04-01T07:44:11.676Z,19.81
2019-04-01T07:45:11.691Z,19.8
2019-04-01T07:46:11.698Z,19.78
2019-04-01T07:47:12.041Z,19.8
2019-04-01T07:48:13.315Z,19.82
2019-04-01T07:49:11.780Z,19.81
2019-04-01T07:50:12.964Z,19.8
2019-04-01T07:51:11.948Z,19.81
2019-04-01T07:52:11.893Z,19.81
2019-04-01T07:53:11.839Z,19.8
2019-04-01T07:54:11.812Z,19.81
2019-04-01T07:55:11.823Z,19.78
2019-04-01T07:56:11.874Z,19.81
2019-04-01T07:57:11.859Z,19.8
2019-04-01T07:58:11.890Z,19.78
2019-04-01T07:59:11.872Z,19.81
2019-04-01T08:00:11.636Z,19.81
2019-04-01T08:01:11.723Z,19.82
2019-04-01T08:02:11.602Z,19.78
2019-04-01T08:03:11.773Z,19.81
2019-04-01T08:04:11.775Z,19.78
2019-04-01T08:05:11.669Z,19.81
2019-04-01T08:06:11.711Z,19.81
2019-04-01T08:07:14.059Z,19.81
2019-04-01T08:08:11.782Z,19.81
2019-04-01T08:09:11.940Z,19.81
2019-04-01T08:10:11.743Z,19.82
2019-04-01T08:11:11.865Z,19.81
2019-04-01T08:12:11.773Z,19.81
2019-04-01T08:13:11.783Z,19.8
2019-04-01T08:14:11.837Z,19.81
2019-04-01T08:15:11.802Z,19.81
2019-04-01T08:16:11.875Z,19.81
2019-04-01T08:17:11.827Z,19.8
2019-04-01T08:18:11.662Z,19.81
2019-04-01T08:19:11.663Z,19.8
2019-04-01T08:20:11.683Z,19.81
2019-04-01T08:21:11.687Z,19.82
2019-04-01T08:22:11.782Z,19.81
2019-04-01T08:23:11.739Z,19.81
2019-04-01T08:24:11.836Z,19.81
2019-04-01T08:25:11.783Z,19.84
2019-04-01T08:26:11.925Z,19.81
2019-04-01T08:27:11.811Z,19.82
2019-04-01T08:28:12.081Z,19.82
2019-04-01T08:29:11.858Z,19.81
2019-04-01T08:30:11.898Z,19.82
2019-04-01T08:31:13.792Z,19.82
2019-04-01T08:32:14.593Z,19.84
2019-04-01T08:33:12.085Z,19.84
2019-04-01T08:34:11.783Z,19.81
2019-04-01T08:35:11.626Z,19.82
2019-04-01T08:36:11.678Z,19.81
2019-04-01T08:37:11.639Z,19.82
2019-04-01T08:38:11.625Z,19.8
2019-04-01T08:39:11.658Z,19.81
2019-04-01T08:40:11.694Z,19.81
2019-04-01T08:41:11.715Z,19.82
2019-04-01T08:42:11.721Z,19.8
2019-04-01T08:43:11.910Z,19.81
2019-04-01T08:44:11.732Z,19.82
2019-04-01T08:45:11.758Z,19.81
2019-04-01T08:46:11.913Z,19.81
2019-04-01T08:47:11.842Z,19.81
2019-04-01T08:48:11.872Z,19.82
2019-04-01T08:49:11.894Z,19.82
2019-04-01T08:50:11.979Z,19.82
2019-04-01T08:51:11.831Z,19.81
2019-04-01T08:52:11.773Z,19.81
2019-04-01T08:53:11.760Z,19.82
2019-04-01T08:54:11.796Z,19.84
2019-04-01T08:55:11.687Z,19.81
2019-04-01T08:56:11.708Z,19.82
2019-04-01T08:57:11.742Z,19.82
2019-04-01T08:58:11.809Z,19.82
2019-04-01T08:59:11.719Z,19.84
2019-04-01T09:00:11.742Z,19.81
2019-04-01T09:01:11.907Z,19.81
2019-04-01T09:02:18.897Z,19.81
2019-04-01T09:03:11.845Z,19.81
2019-04-01T09:04:11.782Z,19.82
2019-04-01T09:05:11.823Z,19.82
2019-04-01T09:06:13.613Z,19.84
2019-04-01T09:07:11.826Z,19.82
2019-04-01T09:08:11.624Z,19.82
2019-04-01T09:09:11.584Z,19.82
2019-04-01T09:10:11.685Z,19.84
2019-04-01T09:11:11.656Z,19.8
2019-04-01T09:12:11.783Z,19.82
2019-04-01T09:13:11.731Z,19.82
2019-04-01T09:14:11.945Z,19.82
2019-04-01T09:15:11.687Z,19.81
2019-04-01T09:16:11.703Z,19.8
2019-04-01T09:17:11.704Z,19.8
2019-04-01T09:18:11.692Z,19.82
2019-04-01T09:19:11.725Z,19.84
2019-04-01T09:20:11.758Z,19.81
2019-04-01T09:21:11.914Z,19.82
2019-04-01T09:22:11.928Z,19.84
2019-04-01T09:23:11.800Z,19.81
2019-04-01T09:24:11.833Z,19.82
2019-04-01T09:25:11.704Z,19.82
2019-04-01T09:26:11.715Z,19.84
2019-04-01T09:27:11.637Z,19.82
2019-04-01T09:28:11.663Z,19.82
2019-04-01T09:29:11.754Z,19.84
2019-04-01T09:30:11.879Z,19.82
2019-04-01T09:31:11.793Z,19.81
2019-04-01T09:32:11.817Z,19.82
2019-04-01T09:33:11.701Z,19.8
2019-04-01T09:34:11.849Z,19.81
2019-04-01T09:35:12.120Z,19.82
2019-04-01T09:36:13.677Z,19.8
2019-04-01T09:37:11.825Z,19.81
2019-04-01T09:38:11.813Z,19.81
2019-04-01T09:39:11.823Z,19.81
2019-04-01T09:40:12.084Z,19.8
2019-04-01T09:41:13.990Z,19.81
2019-04-01T09:42:11.659Z,19.81
2019-04-01T09:43:14.748Z,19.84
2019-04-01T09:44:11.620Z,19.84
2019-04-01T09:45:11.607Z,19.81
2019-04-01T09:46:11.644Z,19.82
2019-04-01T09:47:11.606Z,19.81
2019-04-01T09:48:11.656Z,19.82
2019-04-01T09:49:11.670Z,19.82
2019-04-01T09:50:11.811Z,19.81
2019-04-01T09:51:11.689Z,19.81
2019-04-01T09:52:11.737Z,19.81
2019-04-01T09:53:11.708Z,19.81
2019-04-01T09:54:12.357Z,19.81
2019-04-01T09:55:11.626Z,19.81
2019-04-01T09:56:12.777Z,19.81
2019-04-01T09:57:18.664Z,19.81
2019-04-01T09:58:11.935Z,19.81
2019-04-01T09:59:11.666Z,19.8
2019-04-01T10:00:11.806Z,19.81
2019-04-01T10:01:11.804Z,19.81
2019-04-01T10:02:12.506Z,19.81
2019-04-01T10:03:11.825Z,19.82
2019-04-01T10:04:11.675Z,19.82
2019-04-01T10:05:11.724Z,19.81
2019-04-01T10:06:11.850Z,19.81
2019-04-01T10:07:11.734Z,19.82
2019-04-01T10:08:11.830Z,19.82
2019-04-01T10:09:11.762Z,19.81
2019-04-01T10:10:11.786Z,19.82
2019-04-01T10:11:13.380Z,19.82
2019-04-01T10:12:11.903Z,19.82
2019-04-01T10:13:11.882Z,19.82
2019-04-01T10:14:11.879Z,19.84
2019-04-01T10:15:11.888Z,19.82
2019-04-01T10:16:11.577Z,19.8
2019-04-01T10:17:11.667Z,19.84
2019-04-01T10:18:11.807Z,19.82
2019-04-01T10:19:11.822Z,19.85
2019-04-01T10:20:11.676Z,19.81
2019-04-01T10:21:11.706Z,19.82
2019-04-01T10:22:11.762Z,19.84
2019-04-01T10:23:11.686Z,19.82
2019-04-01T10:24:11.716Z,19.82
2019-04-01T10:25:11.661Z,19.81
2019-04-01T10:26:11.711Z,19.84
2019-04-01T10:27:17.134Z,19.81
2019-04-01T10:28:27.078Z,19.82
2019-04-01T10:29:29.752Z,19.81
2019-04-01T10:30:22.371Z,19.81
2019-04-01T10:31:11.829Z,19.82
2019-04-01T10:32:11.887Z,19.85
2019-04-01T10:33:11.787Z,19.84
2019-04-01T10:34:11.808Z,19.84
2019-04-01T10:35:11.668Z,19.81
2019-04-01T10:36:11.617Z,19.82
2019-04-01T10:37:11.695Z,19.85
2019-04-01T10:38:11.631Z,19.85
2019-04-01T10:39:11.791Z,19.84
2019-04-01T10:40:11.774Z,19.85
2019-04-01T10:41:11.882Z,19.85
2019-04-01T10:42:11.786Z,19.86
2019-04-01T10:43:11.710Z,19.88
2019-04-01T10:44:11.747Z,19.88
2019-04-01T10:45:46.035Z,19.88
2019-04-01T10:46:16.449Z,19.88
2019-04-01T10:47:12.306Z,19.91
2019-04-01T10:48:12.424Z,19.91
2019-04-01T10:49:12.553Z,19.91
2019-04-01T10:50:12.993Z,19.89
2019-04-01T10:51:12.246Z,19.91
2019-04-01T10:52:12.449Z,19.92
2019-04-01T10:53:12.048Z,19.92
2019-04-01T10:54:11.783Z,19.93
2019-04-01T10:55:12.475Z,19.95
2019-04-01T10:56:12.422Z,19.93
2019-04-01T10:57:12.295Z,19.96
2019-04-01T10:58:12.102Z,19.96
2019-04-01T10:59:12.406Z,19.96
2019-04-01T11:00:12.694Z,19.98
2019-04-01T11:01:12.618Z,19.96
2019-04-01T11:02:12.610Z,19.99
2019-04-01T11:03:12.500Z,19.96
2019-04-01T11:04:12.325Z,19.98
2019-04-01T11:05:12.201Z,19.98
2019-04-01T11:06:12.331Z,19.99
2019-04-01T11:07:12.677Z,20.02
2019-04-01T11:08:12.438Z,20.01
2019-04-01T11:09:12.636Z,19.99
2019-04-01T11:10:12.301Z,19.99
2019-04-01T11:11:11.613Z,19.98
2019-04-01T11:12:11.620Z,20.01
2019-04-01T11:13:11.605Z,19.98
2019-04-01T11:14:11.757Z,19.98
2019-04-01T11:15:16.340Z,19.99
2019-04-01T11:16:11.673Z,19.96
2019-04-01T11:17:11.754Z,19.98
2019-04-01T11:18:12.579Z,19.96
2019-04-01T11:19:11.853Z,19.98
2019-04-01T11:20:11.910Z,19.96
2019-04-01T11:21:11.861Z,19.96
2019-04-01T11:22:11.768Z,19.96
2019-04-01T11:23:12.151Z,19.98
2019-04-01T11:24:11.887Z,19.95
2019-04-01T11:25:11.918Z,19.95
2019-04-01T11:26:11.839Z,19.93
2019-04-01T11:27:11.636Z,19.95
2019-04-01T11:28:11.542Z,19.93
2019-04-01T11:29:11.583Z,19.92
2019-04-01T11:30:14.483Z,19.92
2019-04-01T11:31:12.261Z,19.91
2019-04-01T11:32:14.416Z,19.93
2019-04-01T11:33:12.486Z,19.91
2019-04-01T11:34:12.280Z,19.88
2019-04-01T11:35:12.532Z,19.88
2019-04-01T11:36:12.173Z,19.89
2019-04-01T11:37:12.026Z,19.91
2019-04-01T11:38:12.260Z,19.91
2019-04-01T11:39:12.242Z,19.93
2019-04-01T11:40:13.429Z,19.92
2019-04-01T11:41:12.151Z,19.96
2019-04-01T11:42:12.580Z,19.96
2019-04-01T11:43:20.106Z,19.95
2019-04-01T11:44:12.107Z,19.96
2019-04-01T11:45:12.651Z,19.98
2019-04-01T11:46:13.598Z,19.98
2019-04-01T11:47:12.149Z,19.96
2019-04-01T11:48:12.282Z,19.98
2019-04-01T11:49:12.046Z,19.98
2019-04-01T11:50:12.409Z,20.01
2019-04-01T11:51:12.176Z,20.01
2019-04-01T11:52:16.548Z,19.99
2019-04-01T11:53:11.698Z,20.01
2019-04-01T11:54:11.742Z,19.96
2019-04-01T11:55:11.759Z,19.99
2019-04-01T11:56:12.102Z,20.01
2019-04-01T11:57:11.750Z,20.02
2019-04-01T11:58:11.848Z,20.01
2019-04-01T11:59:11.809Z,20.04
2019-04-01T12:00:14.008Z,20.04
2019-04-01T12:01:11.773Z,20.02
2019-04-01T12:02:11.513Z,20.01
2019-04-01T12:03:11.549Z,20.02
2019-04-01T12:04:11.586Z,20.05
2019-04-01T12:05:11.566Z,20.04
2019-04-01T12:06:11.970Z,20.04
2019-04-01T12:07:11.743Z,20.02
2019-04-01T12:08:11.600Z,20.02
2019-04-01T12:09:11.780Z,20.01
2019-04-01T12:10:11.633Z,20.01
2019-04-01T12:11:11.627Z,20.04
2019-04-01T12:12:24.726Z,20.01
2019-04-01T12:13:11.791Z,20.01
2019-04-01T12:14:11.814Z,20.01
2019-04-01T12:15:13.047Z,20.04
2019-04-01T12:16:11.714Z,20.02
2019-04-01T12:17:11.834Z,20.01
2019-04-01T12:18:11.801Z,20.02
2019-04-01T12:19:11.558Z,20.02
2019-04-01T12:20:11.697Z,19.99
2019-04-01T12:21:11.616Z,19.99
2019-04-01T12:22:11.893Z,19.99
2019-04-01T12:23:11.688Z,20.01
2019-04-01T12:24:11.631Z,20.01
2019-04-01T12:25:11.684Z,19.98
2019-04-01T12:26:18.106Z,20.02
2019-04-01T12:27:11.652Z,19.99
2019-04-01T12:28:12.037Z,20.02
2019-04-01T12:29:15.086Z,20.02
2019-04-01T12:30:11.693Z,19.99
2019-04-01T12:31:13.514Z,20.02
2019-04-01T12:32:11.862Z,20.02
2019-04-01T12:33:11.836Z,20.01
2019-04-01T12:34:11.827Z,20.01
2019-04-01T12:35:11.786Z,20.01
2019-04-01T12:36:12.376Z,19.99
2019-04-01T12:37:11.528Z,20.01
2019-04-01T12:38:11.562Z,19.99
2019-04-01T12:39:11.619Z,20.01
2019-04-01T12:40:11.603Z,19.98
2019-04-01T12:41:11.820Z,20.01
2019-04-01T12:42:11.572Z,19.99
2019-04-01T12:43:11.614Z,20.01
2019-04-01T12:44:11.871Z,19.99
2019-04-01T12:45:11.685Z,19.98
2019-04-01T12:46:11.653Z,19.96
2019-04-01T12:47:11.665Z,19.96
2019-04-01T12:48:11.702Z,19.98
2019-04-01T12:49:11.644Z,19.96
2019-04-01T12:50:13.606Z,19.98
2019-04-01T12:51:11.698Z,19.99
2019-04-01T12:52:11.794Z,19.99
2019-04-01T12:53:11.919Z,20.02
2019-04-01T12:54:11.512Z,20.04